Atlantic Eagle — 3FOG8 — position and weather

sailwx.info

Track history (hours):
 
Tides and Currents Weather Stations Pressure Air Temp Water Temp Dewpoint Dewpoint Depression Visibility Wind Speed Wind Dir Waves Ship Positions

Atlantic Eagle

Last reported at 2017-Dec-15 00:15 UTC. Time now 2017-Dec-16 13:09 UTC.
Position N 38°02' W 121°44'.

Length 170 m; draft 5.6 m.

Type: Cargo ship. MMSI: 357215000.

Date/timePositionNaut miles runAvg speedWind from/ knotsBaromVisibWave heightAir tempDewpointWater temp
2017-Dec-15 00:15N 38°02' W 121°44'33 5.7
2017-Dec-14 18:28N 37°46' W 122°20'0 0.1
2017-Dec-14 17:58N 37°46' W 122°20'0 0.2
2017-Dec-14 17:28N 37°46' W 122°20'0 0.1
2017-Dec-14 16:58N 37°46' W 122°20'0 0.0
2017-Dec-14 16:28N 37°46' W 122°20'0 0.1
2017-Dec-14 15:58N 37°46' W 122°20'0 0.0
2017-Dec-14 14:58N 37°46' W 122°20'0 0.0
2017-Dec-14 14:28N 37°46' W 122°20'0 0.0
2017-Dec-14 13:58N 37°46' W 122°20'0 0.7
2017-Dec-14 13:30N 37°46' W 122°21'611.9
2017-Dec-14 13:00N 37°49' W 122°27'713.8
2017-Dec-14 12:30N 37°47' W 122°35'510.8
2017-Dec-14 12:00N 37°44' W 122°41'4 8.1
2017-Dec-14 11:30N 37°46' W 122°46'4 7.3
2017-Dec-14 11:00N 37°48' W 122°50'4 7.3
2017-Dec-14 10:30N 37°50' W 122°54'4 8.1
2017-Dec-14 10:00N 37°52' W 122°58'612.6
2017-Dec-14 09:30N 37°55' W 123°05'612.7
2017-Dec-14 09:00N 37°59' W 123°12'713.4
2017-Dec-14 08:30N 38°04' W 123°18'612.1
2017-Dec-14 08:00N 38°07' W 123°24'612.6
2017-Dec-14 07:30N 38°06' W 123°32'612.3
2017-Dec-14 07:00N 38°06' W 123°39'612.3
2017-Dec-14 06:30N 38°05' W 123°47'612.0
2017-Dec-14 06:00N 38°03' W 123°55'611.9
2017-Dec-14 05:30N 37°60' W 124°01'611.7
2017-Dec-14 05:00N 37°57' W 124°07'611.8
2017-Dec-14 04:30N 37°53' W 124°13'612.1
2017-Dec-14 04:00N 37°49' W 124°19'612.1
2017-Dec-14 03:30N 37°46' W 124°25'611.5
2017-Dec-14 03:00N 37°43' W 124°32'1 2.1
2017-Dec-14 02:30N 37°42' W 124°32'1 1.8
2017-Dec-14 01:59N 37°43' W 124°32'1 1.9
2017-Dec-14 01:29N 37°44' W 124°32'1 1.8
2017-Dec-14 00:59N 37°45' W 124°32'1 1.8
2017-Dec-14 00:29N 37°46' W 124°32'1 1.8
2017-Dec-13 23:59N 37°47' W 124°32'1 1.8
2017-Dec-13 23:29N 37°48' W 124°32'1 1.9
2017-Dec-13 22:59N 37°49' W 124°32'1 2.0
2017-Dec-13 22:29N 37°50' W 124°31'1 2.1
2017-Dec-13 21:59N 37°51' W 124°31'1 1.9
2017-Dec-13 21:29N 37°52' W 124°31'1 1.7
2017-Dec-13 20:59N 37°53' W 124°31'1 1.7
2017-Dec-13 20:29N 37°53' W 124°31'1 1.6
2017-Dec-13 19:59N 37°54' W 124°31'1 1.6
2017-Dec-13 19:29N 37°55' W 124°31'1 1.7
2017-Dec-13 18:59N 37°56' W 124°31'1 1.8
2017-Dec-13 18:29N 37°57' W 124°30'1 1.8
2017-Dec-13 17:59N 37°58' W 124°30'1 1.9
2017-Dec-13 17:29N 37°59' W 124°30'1 1.8
2017-Dec-13 16:59N 37°59' W 124°30'1 1.7
2017-Dec-13 16:29N 38°00' W 124°30'1 1.1
2017-Dec-13 16:00N 38°01' W 124°29'4 8.3
2017-Dec-13 15:30N 38°03' W 124°25'612.5
2017-Dec-13 15:00N 38°06' W 124°18'611.9
2017-Dec-13 14:30N 38°09' W 124°12'3 5.0
2017-Dec-13 13:55N 38°12' W 124°09'1 1.6
2017-Dec-13 13:25N 38°12' W 124°10'1 1.5
2017-Dec-13 12:55N 38°12' W 124°11'1 1.6
2017-Dec-13 12:25N 38°12' W 124°12'1 1.5
2017-Dec-13 11:58N 38°12' W 124°13'1 1.3
2017-Dec-13 11:25N 38°12' W 124°14'1 1.4
2017-Dec-13 10:55N 38°12' W 124°15'1 1.3
2017-Dec-13 10:25N 38°12' W 124°15'1 1.3
2017-Dec-13 09:55N 38°13' W 124°16'1 1.3
2017-Dec-13 09:25N 38°13' W 124°17'1 1.8
2017-Dec-13 08:58N 38°13' W 124°18'1 1.6
2017-Dec-13 08:28N 38°13' W 124°19'1 1.3
2017-Dec-13 07:55N 38°14' W 124°20'1 1.3
2017-Dec-13 07:25N 38°14' W 124°20'1 1.4
2017-Dec-13 06:58N 38°14' W 124°21'1 1.4
2017-Dec-13 06:25N 38°14' W 124°22'1 1.5
2017-Dec-13 05:55N 38°15' W 124°23'1 1.5
2017-Dec-13 05:28N 38°15' W 124°24'1 1.5
2017-Dec-13 04:58N 38°15' W 124°25'1 1.4
2017-Dec-13 04:28N 38°15' W 124°26'1 1.4
2017-Dec-13 03:55N 38°15' W 124°27'1 1.4
2017-Dec-13 03:25N 38°15' W 124°27'1 1.4
2017-Dec-13 02:55N 38°15' W 124°28'1 1.3
2017-Dec-13 02:25N 38°15' W 124°29'1 1.2
2017-Dec-13 01:55N 38°15' W 124°30'1 1.2
2017-Dec-13 01:25N 38°15' W 124°31'1 1.1
2017-Dec-13 00:55N 38°15' W 124°31'0 0.9
2017-Dec-13 00:25N 38°15' W 124°32'0 0.8
2017-Dec-12 23:55N 38°15' W 124°32'0 0.9
2017-Dec-12 23:25N 38°15' W 124°33'0 0.9
2017-Dec-12 22:55N 38°15' W 124°34'1 1.1
2017-Dec-12 22:25N 38°15' W 124°34'1 1.2
2017-Dec-12 21:55N 38°15' W 124°35'1 1.1
2017-Dec-12 21:25N 38°15' W 124°36'1 1.2
2017-Dec-12 20:49N 38°15' W 124°37'0 1.2
2017-Dec-12 20:25N 38°15' W 124°37'0 0.9
2017-Dec-12 19:55N 38°15' W 124°38'0 0.8
2017-Dec-12 19:25N 38°15' W 124°38'0 0.9
2017-Dec-12 18:55N 38°15' W 124°39'0 1.0
2017-Dec-12 18:25N 38°15' W 124°39'1 1.1
2017-Dec-12 17:55N 38°15' W 124°40'1 1.0
2017-Dec-12 17:25N 38°15' W 124°41'0 0.9
2017-Dec-12 16:55N 38°15' W 124°41'0 0.9
2017-Dec-12 16:25N 38°15' W 124°42'0 0.8
2017-Dec-12 15:55N 38°15' W 124°42'0 0.7
2017-Dec-12 15:25N 38°15' W 124°43'0 0.8
2017-Dec-12 14:55N 38°15' W 124°43'0 0.8
2017-Dec-12 14:25N 38°15' W 124°44'0 0.9
2017-Dec-12 13:55N 38°15' W 124°44'0 0.8
2017-Dec-12 13:25N 38°14' W 124°45'0 0.7
2017-Dec-12 12:55N 38°14' W 124°45'0 0.7
2017-Dec-12 12:19N 38°14' W 124°46'0 0.5
2017-Dec-12 11:55N 38°14' W 124°46'0 0.6
2017-Dec-12 11:25N 38°14' W 124°46'0 0.6
2017-Dec-12 10:55N 38°13' W 124°46'0 0.5
2017-Dec-12 10:25N 38°13' W 124°46'0 0.6
2017-Dec-12 09:49N 38°13' W 124°46'0 0.5
2017-Dec-12 09:19N 38°12' W 124°46'0 0.5
2017-Dec-12 08:49N 38°12' W 124°46'0 0.4
2017-Dec-12 08:25N 38°12' W 124°46'0 0.5
2017-Dec-12 07:49N 38°12' W 124°46'0 0.5
2017-Dec-12 07:25N 38°12' W 124°46'0 0.6
2017-Dec-12 06:55N 38°11' W 124°46'1 0.6
2017-Dec-12 06:01N 38°11' W 124°45'0 0.7
2017-Dec-12 05:55N 38°11' W 124°45'0 0.7
2017-Dec-12 05:25N 38°11' W 124°45'0 0.4
2017-Dec-12 04:55N 38°10' W 124°45'0 0.5
2017-Dec-12 04:25N 38°10' W 124°44'0 0.5
2017-Dec-12 03:55N 38°10' W 124°44'0 0.6
2017-Dec-12 03:25N 38°10' W 124°44'0 0.4
2017-Dec-12 02:55N 38°10' W 124°44'0 0.9
2017-Dec-12 02:25N 38°09' W 124°44'0 0.9
2017-Dec-12 01:55N 38°09' W 124°44'1 1.0
2017-Dec-12 01:25N 38°08' W 124°44'1 1.0
2017-Dec-12 00:55N 38°08' W 124°43'1 1.1
2017-Dec-12 00:19N 38°07' W 124°43'0 1.2
2017-Dec-11 23:55N 38°07' W 124°43'1 1.2
2017-Dec-11 23:13N 38°06' W 124°42'0 1.0
2017-Dec-11 22:55N 38°06' W 124°42'0 0.9
2017-Dec-11 22:25N 38°06' W 124°42'0 0.9
2017-Dec-11 21:55N 38°05' W 124°41'1 1.0
2017-Dec-11 21:25N 38°05' W 124°40'1 1.1
2017-Dec-11 20:49N 38°05' W 124°40'0 0.9
2017-Dec-11 20:19N 38°05' W 124°39'0 0.9
2017-Dec-11 19:55N 38°05' W 124°39'0 0.8
2017-Dec-11 19:25N 38°04' W 124°38'1 1.1
2017-Dec-11 18:55N 38°04' W 124°38'1 1.2
2017-Dec-11 18:25N 38°03' W 124°38'1 1.5
2017-Dec-11 17:49N 38°03' W 124°37'1 1.5
2017-Dec-11 17:01N 38°02' W 124°36'0 1.5
2017-Dec-11 16:55N 38°02' W 124°36'1 1.4
2017-Dec-11 16:25N 38°01' W 124°35'1 1.4
2017-Dec-11 15:55N 38°01' W 124°35'1 1.5
2017-Dec-11 15:25N 38°00' W 124°34'1 1.4
2017-Dec-11 14:55N 38°00' W 124°33'1 1.4
2017-Dec-11 14:25N 37°60' W 124°32'1 1.3
2017-Dec-11 13:55N 37°60' W 124°31'1 1.8
2017-Dec-11 13:30N 37°60' W 124°30'3 6.3
2017-Dec-11 13:00N 38°00' W 124°26'5 9.1
2017-Dec-11 12:30N 38°01' W 124°21'612.2
2017-Dec-11 12:00N 38°02' W 124°13'612.8
2017-Dec-11 11:30N 38°03' W 124°05'612.8
2017-Dec-11 11:00N 38°04' W 123°57'612.7
2017-Dec-11 10:30N 38°05' W 123°49'612.7
2017-Dec-11 10:00N 38°06' W 123°41'612.7
2017-Dec-11 09:30N 38°07' W 123°33'612.5
2017-Dec-11 09:00N 38°08' W 123°25'510.9
2017-Dec-11 08:30N 38°07' W 123°18'612.0
2017-Dec-11 08:00N 38°03' W 123°13'612.0
2017-Dec-11 07:30N 37°58' W 123°08'612.2
2017-Dec-11 07:00N 37°55' W 123°02'612.5
2017-Dec-11 06:30N 37°52' W 122°55'612.5
2017-Dec-11 06:00N 37°49' W 122°48'612.2
2017-Dec-11 05:30N 37°46' W 122°41'611.1
2017-Dec-11 05:00N 37°47' W 122°35'713.9
2017-Dec-11 04:30N 37°50' W 122°27'611.4
2017-Dec-11 04:00N 37°46' W 122°21'3 5.0
2017-Dec-11 03:28N 37°44' W 122°20'0 0.1
2017-Dec-11 02:58N 37°44' W 122°20'0 0.3
2017-Dec-11 02:28N 37°44' W 122°19'0 0.1
2017-Dec-11 01:58N 37°44' W 122°20'0 0.0
2017-Dec-11 01:28N 37°44' W 122°20'0 0.0
2017-Dec-11 00:58N 37°44' W 122°20'0 0.0
2017-Dec-11 00:28N 37°44' W 122°20'0 0.0
2017-Dec-10 23:58N 37°44' W 122°20'0 0.0
2017-Dec-10 23:28N 37°44' W 122°20'0 0.0
2017-Dec-10 22:58N 37°44' W 122°20'0 0.0
2017-Dec-10 22:28N 37°44' W 122°20'0 0.1
2017-Dec-10 21:58N 37°44' W 122°19'0 0.1
2017-Dec-10 21:28N 37°44' W 122°19'0 0.2
2017-Dec-10 20:58N 37°44' W 122°20'0 0.0
2017-Dec-10 20:28N 37°44' W 122°20'0 0.0
2017-Dec-10 19:58N 37°44' W 122°20'0 0.1
2017-Dec-10 19:28N 37°44' W 122°20'0 0.0
2017-Dec-10 18:58N 37°44' W 122°20'0 0.0
2017-Dec-10 18:28N 37°44' W 122°20'0 0.0
2017-Dec-10 17:58N 37°44' W 122°20'0 0.0
2017-Dec-10 17:28N 37°44' W 122°20'0 0.0
2017-Dec-10 16:58N 37°44' W 122°20'0 0.0
2017-Dec-10 16:28N 37°44' W 122°20'0 0.0
2017-Dec-10 15:58N 37°44' W 122°20'0 0.0
2017-Dec-10 15:28N 37°44' W 122°20'0 0.2
2017-Dec-10 14:58N 37°44' W 122°20'0 0.3
2017-Dec-10 14:28N 37°44' W 122°19'0 0.1
2017-Dec-10 13:58N 37°44' W 122°19'0 0.1
2017-Dec-10 13:28N 37°44' W 122°20'0 0.0
2017-Dec-10 12:58N 37°44' W 122°20'0 0.0
2017-Dec-10 12:28N 37°44' W 122°20'0 0.0
2017-Dec-10 11:58N 37°44' W 122°20'0 0.0
2017-Dec-10 11:28N 37°44' W 122°20'0 0.0
2017-Dec-10 10:58N 37°44' W 122°20'0 0.0
2017-Dec-10 10:28N 37°44' W 122°20'0 0.1
2017-Dec-10 09:58N 37°44' W 122°20'0 0.1
2017-Dec-10 09:28N 37°44' W 122°20'0 0.0
2017-Dec-10 08:58N 37°44' W 122°20'0 0.4
2017-Dec-10 08:28N 37°44' W 122°20'0 0.1
2017-Dec-10 07:58N 37°44' W 122°20'0 0.1
2017-Dec-10 07:28N 37°44' W 122°20'0 0.0
2017-Dec-10 06:58N 37°44' W 122°20'0 0.0
2017-Dec-10 06:28N 37°44' W 122°20'0 0.0
2017-Dec-10 05:58N 37°44' W 122°20'0 0.0
2017-Dec-10 05:28N 37°44' W 122°20'0 0.0
2017-Dec-10 04:58N 37°44' W 122°20'0 0.0
2017-Dec-10 04:28N 37°44' W 122°20'0 0.0
2017-Dec-10 03:58N 37°44' W 122°20'0 0.0
2017-Dec-10 03:28N 37°44' W 122°20'0 0.0
2017-Dec-10 02:58N 37°44' W 122°20'0 0.0
2017-Dec-10 02:28N 37°44' W 122°20'0 0.1
2017-Dec-10 01:58N 37°44' W 122°20'0 0.0
2017-Dec-10 01:28N 37°44' W 122°20'0 0.2
2017-Dec-10 00:58N 37°44' W 122°20'0 0.2
2017-Dec-10 00:28N 37°44' W 122°20'0 0.1
2017-Dec-09 23:58N 37°44' W 122°20'0 0.0
2017-Dec-09 23:28N 37°44' W 122°20'0 0.0
2017-Dec-09 22:58N 37°44' W 122°20'0 0.1
2017-Dec-09 22:28N 37°44' W 122°20'0 0.1
2017-Dec-09 21:58N 37°44' W 122°20'0 0.0
2017-Dec-09 21:28N 37°44' W 122°20'0 0.0
2017-Dec-09 20:58N 37°44' W 122°20'0 0.1
2017-Dec-09 20:28N 37°44' W 122°20'0 0.2
2017-Dec-09 19:58N 37°44' W 122°20'0 0.1
2017-Dec-09 19:25N 37°44' W 122°20'0 0.0
2017-Dec-09 18:58N 37°44' W 122°20'0 0.0
2017-Dec-09 18:25N 37°44' W 122°20'0 0.0
2017-Dec-09 17:58N 37°44' W 122°20'0 0.0
2017-Dec-09 17:25N 37°44' W 122°20'0 0.1
2017-Dec-09 16:58N 37°44' W 122°20'0 0.0
2017-Dec-09 16:28N 37°44' W 122°20'0 0.0
2017-Dec-09 15:58N 37°44' W 122°20'0 0.0
2017-Dec-09 15:28N 37°44' W 122°20'0 0.1
2017-Dec-09 14:58N 37°44' W 122°20'0 0.1
2017-Dec-09 14:28N 37°44' W 122°20'0 0.2
2017-Dec-09 13:58N 37°44' W 122°20'0 0.1
2017-Dec-09 13:28N 37°44' W 122°20'0 0.0
2017-Dec-09 12:58N 37°44' W 122°20'0 0.1
2017-Dec-09 12:28N 37°44' W 122°20'0 0.0
2017-Dec-09 11:58N 37°44' W 122°20'0 0.1
2017-Dec-09 11:28N 37°44' W 122°20'0 0.1
2017-Dec-09 10:59N 37°44' W 122°20'0 0.0
2017-Dec-09 10:29N 37°44' W 122°20'0 0.0
2017-Dec-09 09:58N 37°44' W 122°20'0 0.0
2017-Dec-09 09:28N 37°44' W 122°20'0 0.0
2017-Dec-09 08:58N 37°44' W 122°20'0 0.0
2017-Dec-09 08:28N 37°44' W 122°20'0 0.1
2017-Dec-09 07:58N 37°44' W 122°20'0 0.0
2017-Dec-09 07:28N 37°44' W 122°20'0 0.2
2017-Dec-09 06:58N 37°44' W 122°20'0 0.2
2017-Dec-09 06:28N 37°44' W 122°20'0 0.0
2017-Dec-09 05:58N 37°44' W 122°20'0 0.0
2017-Dec-09 05:28N 37°44' W 122°20'0 0.0
2017-Dec-09 04:58N 37°44' W 122°20'0 0.0
2017-Dec-09 04:28N 37°44' W 122°20'0 0.0
2017-Dec-09 03:58N 37°44' W 122°20'0 0.1
2017-Dec-09 03:28N 37°44' W 122°20'0 0.0
2017-Dec-09 02:58N 37°44' W 122°20'0 0.0
2017-Dec-09 02:28N 37°44' W 122°20'0 0.0
2017-Dec-09 01:58N 37°44' W 122°20'0 0.1
2017-Dec-09 01:28N 37°44' W 122°20'0 0.0
2017-Dec-09 00:58N 37°44' W 122°20'0 0.1
2017-Dec-09 00:28N 37°44' W 122°20'0 0.2
2017-Dec-08 23:58N 37°44' W 122°20'0 0.2
2017-Dec-08 23:28N 37°44' W 122°20'0 0.0
2017-Dec-08 22:58N 37°44' W 122°20'0 0.0
2017-Dec-08 22:28N 37°44' W 122°20'0 0.0
2017-Dec-08 21:58N 37°44' W 122°20'0 0.0
2017-Dec-08 21:28N 37°44' W 122°20'0 0.0
2017-Dec-08 20:58N 37°44' W 122°20'0 0.0
2017-Dec-08 20:28N 37°44' W 122°20'0 0.0
2017-Dec-08 19:58N 37°44' W 122°20'0 0.0
2017-Dec-08 19:28N 37°44' W 122°20'0 0.0
2017-Dec-08 18:58N 37°44' W 122°20'0 0.2
2017-Dec-08 18:28N 37°44' W 122°20'0 0.1
2017-Dec-08 17:58N 37°44' W 122°20'0 0.1
2017-Dec-08 17:28N 37°44' W 122°20'0 0.0
2017-Dec-08 16:58N 37°44' W 122°20'0 0.0
2017-Dec-08 16:28N 37°44' W 122°20'0 0.0
2017-Dec-08 15:58N 37°44' W 122°20'0 0.0
2017-Dec-08 15:28N 37°44' W 122°20'0 0.0
2017-Dec-08 14:58N 37°44' W 122°20'0 0.1
2017-Dec-08 14:28N 37°44' W 122°20'0 0.0
2017-Dec-08 13:58N 37°44' W 122°20'0 0.1
2017-Dec-08 13:28N 37°44' W 122°20'0 0.2
2017-Dec-08 12:58N 37°44' W 122°20'0 0.0
2017-Dec-08 12:28N 37°44' W 122°20'0 0.0
2017-Dec-08 11:58N 37°44' W 122°20'0 0.1
2017-Dec-08 11:28N 37°44' W 122°20'0 0.0
2017-Dec-08 10:58N 37°44' W 122°20'0 0.0
2017-Dec-08 10:28N 37°44' W 122°20'0 0.0
2017-Dec-08 09:58N 37°44' W 122°20'0 0.0
2017-Dec-08 09:28N 37°44' W 122°20'0 0.0
2017-Dec-08 08:58N 37°44' W 122°20'0 0.0
2017-Dec-08 08:28N 37°44' W 122°20'0 0.0
2017-Dec-08 07:58N 37°44' W 122°20'0 0.0
2017-Dec-08 07:28N 37°44' W 122°20'0 0.1
2017-Dec-08 06:58N 37°44' W 122°20'0 0.1
2017-Dec-08 06:28N 37°44' W 122°20'0 0.3
2017-Dec-08 05:58N 37°44' W 122°20'0 0.1
2017-Dec-08 05:28N 37°44' W 122°20'0 0.0
2017-Dec-08 04:58N 37°44' W 122°20'0 0.0
2017-Dec-08 04:28N 37°44' W 122°20'0 0.0
2017-Dec-08 03:58N 37°44' W 122°20'0 0.0
2017-Dec-08 03:28N 37°44' W 122°20'0 0.0
2017-Dec-08 02:58N 37°44' W 122°20'0 0.0
2017-Dec-08 02:28N 37°44' W 122°20'0 0.2
2017-Dec-08 02:01N 37°44' W 122°20'4 8.3
2017-Dec-08 01:30N 37°48' W 122°22'612.9
2017-Dec-08 01:01N 37°53' W 122°26'714.1
2017-Dec-08 00:30N 38°00' W 122°24'713.4
2017-Dec-08 00:00N 38°04' W 122°17'611.4
2017-Dec-07 23:30N 38°02' W 122°10'510.3
2017-Dec-07 22:59N 38°04' W 122°03'612.5
2017-Dec-07 22:30N 38°03' W 121°56'4 7.4
2017-Dec-07 21:59N 38°02' W 121°51'14 8.9
2017-Dec-07 20:27N 38°05' W 121°35'  
Track history (hours):
 
Tides and Currents Weather Stations Pressure Air Temp Water Temp Dewpoint Dewpoint Depression Visibility Wind Speed Wind Dir Waves Ship Positions

Atlantic Eagle

Last reported at 2017-Dec-15 00:15 UTC. Time now 2017-Dec-16 13:09 UTC.
Position N 38°02' W 121°44'.

Length 170 m; draft 5.6 m.

Type: Cargo ship. MMSI: 357215000.

Date/timePositionNaut miles runAvg speedWind from/ knotsBaromVisibWave heightAir tempDewpointWater temp
2017-Dec-15 00:15N 38°02' W 121°44'33 5.7
2017-Dec-14 18:28N 37°46' W 122°20'0 0.1
2017-Dec-14 17:58N 37°46' W 122°20'0 0.2
2017-Dec-14 17:28N 37°46' W 122°20'0 0.1
2017-Dec-14 16:58N 37°46' W 122°20'0 0.0
2017-Dec-14 16:28N 37°46' W 122°20'0 0.1
2017-Dec-14 15:58N 37°46' W 122°20'0 0.0
2017-Dec-14 14:58N 37°46' W 122°20'0 0.0
2017-Dec-14 14:28N 37°46' W 122°20'0 0.0
2017-Dec-14 13:58N 37°46' W 122°20'0 0.7
2017-Dec-14 13:30N 37°46' W 122°21'611.9
2017-Dec-14 13:00N 37°49' W 122°27'713.8
2017-Dec-14 12:30N 37°47' W 122°35'510.8
2017-Dec-14 12:00N 37°44' W 122°41'4 8.1
2017-Dec-14 11:30N 37°46' W 122°46'4 7.3
2017-Dec-14 11:00N 37°48' W 122°50'4 7.3
2017-Dec-14 10:30N 37°50' W 122°54'4 8.1
2017-Dec-14 10:00N 37°52' W 122°58'612.6
2017-Dec-14 09:30N 37°55' W 123°05'612.7
2017-Dec-14 09:00N 37°59' W 123°12'713.4
2017-Dec-14 08:30N 38°04' W 123°18'612.1
2017-Dec-14 08:00N 38°07' W 123°24'612.6
2017-Dec-14 07:30N 38°06' W 123°32'612.3
2017-Dec-14 07:00N 38°06' W 123°39'612.3
2017-Dec-14 06:30N 38°05' W 123°47'612.0
2017-Dec-14 06:00N 38°03' W 123°55'611.9
2017-Dec-14 05:30N 37°60' W 124°01'611.7
2017-Dec-14 05:00N 37°57' W 124°07'611.8
2017-Dec-14 04:30N 37°53' W 124°13'612.1
2017-Dec-14 04:00N 37°49' W 124°19'612.1
2017-Dec-14 03:30N 37°46' W 124°25'611.5
2017-Dec-14 03:00N 37°43' W 124°32'1 2.1
2017-Dec-14 02:30N 37°42' W 124°32'1 1.8
2017-Dec-14 01:59N 37°43' W 124°32'1 1.9
2017-Dec-14 01:29N 37°44' W 124°32'1 1.8
2017-Dec-14 00:59N 37°45' W 124°32'1 1.8
2017-Dec-14 00:29N 37°46' W 124°32'1 1.8
2017-Dec-13 23:59N 37°47' W 124°32'1 1.8
2017-Dec-13 23:29N 37°48' W 124°32'1 1.9
2017-Dec-13 22:59N 37°49' W 124°32'1 2.0
2017-Dec-13 22:29N 37°50' W 124°31'1 2.1
2017-Dec-13 21:59N 37°51' W 124°31'1 1.9
2017-Dec-13 21:29N 37°52' W 124°31'1 1.7
2017-Dec-13 20:59N 37°53' W 124°31'1 1.7
2017-Dec-13 20:29N 37°53' W 124°31'1 1.6
2017-Dec-13 19:59N 37°54' W 124°31'1 1.6
2017-Dec-13 19:29N 37°55' W 124°31'1 1.7
2017-Dec-13 18:59N 37°56' W 124°31'1 1.8
2017-Dec-13 18:29N 37°57' W 124°30'1 1.8
2017-Dec-13 17:59N 37°58' W 124°30'1 1.9
2017-Dec-13 17:29N 37°59' W 124°30'1 1.8
2017-Dec-13 16:59N 37°59' W 124°30'1 1.7
2017-Dec-13 16:29N 38°00' W 124°30'1 1.1
2017-Dec-13 16:00N 38°01' W 124°29'4 8.3
2017-Dec-13 15:30N 38°03' W 124°25'612.5
2017-Dec-13 15:00N 38°06' W 124°18'611.9
2017-Dec-13 14:30N 38°09' W 124°12'3 5.0
2017-Dec-13 13:55N 38°12' W 124°09'1 1.6
2017-Dec-13 13:25N 38°12' W 124°10'1 1.5
2017-Dec-13 12:55N 38°12' W 124°11'1 1.6
2017-Dec-13 12:25N 38°12' W 124°12'1 1.5
2017-Dec-13 11:58N 38°12' W 124°13'1 1.3
2017-Dec-13 11:25N 38°12' W 124°14'1 1.4
2017-Dec-13 10:55N 38°12' W 124°15'1 1.3
2017-Dec-13 10:25N 38°12' W 124°15'1 1.3
2017-Dec-13 09:55N 38°13' W 124°16'1 1.3
2017-Dec-13 09:25N 38°13' W 124°17'1 1.8
2017-Dec-13 08:58N 38°13' W 124°18'1 1.6
2017-Dec-13 08:28N 38°13' W 124°19'1 1.3
2017-Dec-13 07:55N 38°14' W 124°20'1 1.3
2017-Dec-13 07:25N 38°14' W 124°20'1 1.4
2017-Dec-13 06:58N 38°14' W 124°21'1 1.4
2017-Dec-13 06:25N 38°14' W 124°22'1 1.5
2017-Dec-13 05:55N 38°15' W 124°23'1 1.5
2017-Dec-13 05:28N 38°15' W 124°24'1 1.5
2017-Dec-13 04:58N 38°15' W 124°25'1 1.4
2017-Dec-13 04:28N 38°15' W 124°26'1 1.4
2017-Dec-13 03:55N 38°15' W 124°27'1 1.4
2017-Dec-13 03:25N 38°15' W 124°27'1 1.4
2017-Dec-13 02:55N 38°15' W 124°28'1 1.3
2017-Dec-13 02:25N 38°15' W 124°29'1 1.2
2017-Dec-13 01:55N 38°15' W 124°30'1 1.2
2017-Dec-13 01:25N 38°15' W 124°31'1 1.1
2017-Dec-13 00:55N 38°15' W 124°31'0 0.9
2017-Dec-13 00:25N 38°15' W 124°32'0 0.8
2017-Dec-12 23:55N 38°15' W 124°32'0 0.9
2017-Dec-12 23:25N 38°15' W 124°33'0 0.9
2017-Dec-12 22:55N 38°15' W 124°34'1 1.1
2017-Dec-12 22:25N 38°15' W 124°34'1 1.2
2017-Dec-12 21:55N 38°15' W 124°35'1 1.1
2017-Dec-12 21:25N 38°15' W 124°36'1 1.2
2017-Dec-12 20:49N 38°15' W 124°37'0 1.2
2017-Dec-12 20:25N 38°15' W 124°37'0 0.9
2017-Dec-12 19:55N 38°15' W 124°38'0 0.8
2017-Dec-12 19:25N 38°15' W 124°38'0 0.9
2017-Dec-12 18:55N 38°15' W 124°39'0 1.0
2017-Dec-12 18:25N 38°15' W 124°39'1 1.1
2017-Dec-12 17:55N 38°15' W 124°40'1 1.0
2017-Dec-12 17:25N 38°15' W 124°41'0 0.9
2017-Dec-12 16:55N 38°15' W 124°41'0 0.9
2017-Dec-12 16:25N 38°15' W 124°42'0 0.8
2017-Dec-12 15:55N 38°15' W 124°42'0 0.7
2017-Dec-12 15:25N 38°15' W 124°43'0 0.8
2017-Dec-12 14:55N 38°15' W 124°43'0 0.8
2017-Dec-12 14:25N 38°15' W 124°44'0 0.9
2017-Dec-12 13:55N 38°15' W 124°44'0 0.8
2017-Dec-12 13:25N 38°14' W 124°45'0 0.7
2017-Dec-12 12:55N 38°14' W 124°45'0 0.7
2017-Dec-12 12:19N 38°14' W 124°46'0 0.5
2017-Dec-12 11:55N 38°14' W 124°46'0 0.6
2017-Dec-12 11:25N 38°14' W 124°46'0 0.6
2017-Dec-12 10:55N 38°13' W 124°46'0 0.5
2017-Dec-12 10:25N 38°13' W 124°46'0 0.6
2017-Dec-12 09:49N 38°13' W 124°46'0 0.5
2017-Dec-12 09:19N 38°12' W 124°46'0 0.5
2017-Dec-12 08:49N 38°12' W 124°46'0 0.4
2017-Dec-12 08:25N 38°12' W 124°46'0 0.5
2017-Dec-12 07:49N 38°12' W 124°46'0 0.5
2017-Dec-12 07:25N 38°12' W 124°46'0 0.6
2017-Dec-12 06:55N 38°11' W 124°46'1 0.6
2017-Dec-12 06:01N 38°11' W 124°45'0 0.7
2017-Dec-12 05:55N 38°11' W 124°45'0 0.7
2017-Dec-12 05:25N 38°11' W 124°45'0 0.4
2017-Dec-12 04:55N 38°10' W 124°45'0 0.5
2017-Dec-12 04:25N 38°10' W 124°44'0 0.5
2017-Dec-12 03:55N 38°10' W 124°44'0 0.6
2017-Dec-12 03:25N 38°10' W 124°44'0 0.4
2017-Dec-12 02:55N 38°10' W 124°44'0 0.9
2017-Dec-12 02:25N 38°09' W 124°44'0 0.9
2017-Dec-12 01:55N 38°09' W 124°44'1 1.0
2017-Dec-12 01:25N 38°08' W 124°44'1 1.0
2017-Dec-12 00:55N 38°08' W 124°43'1 1.1
2017-Dec-12 00:19N 38°07' W 124°43'0 1.2
2017-Dec-11 23:55N 38°07' W 124°43'1 1.2
2017-Dec-11 23:13N 38°06' W 124°42'0 1.0
2017-Dec-11 22:55N 38°06' W 124°42'0 0.9
2017-Dec-11 22:25N 38°06' W 124°42'0 0.9
2017-Dec-11 21:55N 38°05' W 124°41'1 1.0
2017-Dec-11 21:25N 38°05' W 124°40'1 1.1
2017-Dec-11 20:49N 38°05' W 124°40'0 0.9
2017-Dec-11 20:19N 38°05' W 124°39'0 0.9
2017-Dec-11 19:55N 38°05' W 124°39'0 0.8
2017-Dec-11 19:25N 38°04' W 124°38'1 1.1
2017-Dec-11 18:55N 38°04' W 124°38'1 1.2
2017-Dec-11 18:25N 38°03' W 124°38'1 1.5
2017-Dec-11 17:49N 38°03' W 124°37'1 1.5
2017-Dec-11 17:01N 38°02' W 124°36'0 1.5
2017-Dec-11 16:55N 38°02' W 124°36'1 1.4
2017-Dec-11 16:25N 38°01' W 124°35'1 1.4
2017-Dec-11 15:55N 38°01' W 124°35'1 1.5
2017-Dec-11 15:25N 38°00' W 124°34'1 1.4
2017-Dec-11 14:55N 38°00' W 124°33'1 1.4
2017-Dec-11 14:25N 37°60' W 124°32'1 1.3
2017-Dec-11 13:55N 37°60' W 124°31'1 1.8
2017-Dec-11 13:30N 37°60' W 124°30'3 6.3
2017-Dec-11 13:00N 38°00' W 124°26'5 9.1
2017-Dec-11 12:30N 38°01' W 124°21'612.2
2017-Dec-11 12:00N 38°02' W 124°13'612.8
2017-Dec-11 11:30N 38°03' W 124°05'612.8
2017-Dec-11 11:00N 38°04' W 123°57'612.7
2017-Dec-11 10:30N 38°05' W 123°49'612.7
2017-Dec-11 10:00N 38°06' W 123°41'612.7
2017-Dec-11 09:30N 38°07' W 123°33'612.5
2017-Dec-11 09:00N 38°08' W 123°25'510.9
2017-Dec-11 08:30N 38°07' W 123°18'612.0
2017-Dec-11 08:00N 38°03' W 123°13'612.0
2017-Dec-11 07:30N 37°58' W 123°08'612.2
2017-Dec-11 07:00N 37°55' W 123°02'612.5
2017-Dec-11 06:30N 37°52' W 122°55'612.5
2017-Dec-11 06:00N 37°49' W 122°48'612.2
2017-Dec-11 05:30N 37°46' W 122°41'611.1
2017-Dec-11 05:00N 37°47' W 122°35'713.9
2017-Dec-11 04:30N 37°50' W 122°27'611.4
2017-Dec-11 04:00N 37°46' W 122°21'3 5.0
2017-Dec-11 03:28N 37°44' W 122°20'0 0.1
2017-Dec-11 02:58N 37°44' W 122°20'0 0.3
2017-Dec-11 02:28N 37°44' W 122°19'0 0.1
2017-Dec-11 01:58N 37°44' W 122°20'0 0.0
2017-Dec-11 01:28N 37°44' W 122°20'0 0.0
2017-Dec-11 00:58N 37°44' W 122°20'0 0.0
2017-Dec-11 00:28N 37°44' W 122°20'0 0.0
2017-Dec-10 23:58N 37°44' W 122°20'0 0.0
2017-Dec-10 23:28N 37°44' W 122°20'0 0.0
2017-Dec-10 22:58N 37°44' W 122°20'0 0.0
2017-Dec-10 22:28N 37°44' W 122°20'0 0.1
2017-Dec-10 21:58N 37°44' W 122°19'0 0.1
2017-Dec-10 21:28N 37°44' W 122°19'0 0.2
2017-Dec-10 20:58N 37°44' W 122°20'0 0.0
2017-Dec-10 20:28N 37°44' W 122°20'0 0.0
2017-Dec-10 19:58N 37°44' W 122°20'0 0.1
2017-Dec-10 19:28N 37°44' W 122°20'0 0.0
2017-Dec-10 18:58N 37°44' W 122°20'0 0.0
2017-Dec-10 18:28N 37°44' W 122°20'0 0.0
2017-Dec-10 17:58N 37°44' W 122°20'0 0.0
2017-Dec-10 17:28N 37°44' W 122°20'0 0.0
2017-Dec-10 16:58N 37°44' W 122°20'0 0.0
2017-Dec-10 16:28N 37°44' W 122°20'0 0.0
2017-Dec-10 15:58N 37°44' W 122°20'0 0.0
2017-Dec-10 15:28N 37°44' W 122°20'0 0.2
2017-Dec-10 14:58N 37°44' W 122°20'0 0.3
2017-Dec-10 14:28N 37°44' W 122°19'0 0.1
2017-Dec-10 13:58N 37°44' W 122°19'0 0.1
2017-Dec-10 13:28N 37°44' W 122°20'0 0.0
2017-Dec-10 12:58N 37°44' W 122°20'0 0.0
2017-Dec-10 12:28N 37°44' W 122°20'0 0.0
2017-Dec-10 11:58N 37°44' W 122°20'0 0.0
2017-Dec-10 11:28N 37°44' W 122°20'0 0.0
2017-Dec-10 10:58N 37°44' W 122°20'0 0.0
2017-Dec-10 10:28N 37°44' W 122°20'0 0.1
2017-Dec-10 09:58N 37°44' W 122°20'0 0.1
2017-Dec-10 09:28N 37°44' W 122°20'0 0.0
2017-Dec-10 08:58N 37°44' W 122°20'0 0.4
2017-Dec-10 08:28N 37°44' W 122°20'0 0.1
2017-Dec-10 07:58N 37°44' W 122°20'0 0.1
2017-Dec-10 07:28N 37°44' W 122°20'0 0.0
2017-Dec-10 06:58N 37°44' W 122°20'0 0.0
2017-Dec-10 06:28N 37°44' W 122°20'0 0.0
2017-Dec-10 05:58N 37°44' W 122°20'0 0.0
2017-Dec-10 05:28N 37°44' W 122°20'0 0.0
2017-Dec-10 04:58N 37°44' W 122°20'0 0.0
2017-Dec-10 04:28N 37°44' W 122°20'0 0.0
2017-Dec-10 03:58N 37°44' W 122°20'0 0.0
2017-Dec-10 03:28N 37°44' W 122°20'0 0.0
2017-Dec-10 02:58N 37°44' W 122°20'0 0.0
2017-Dec-10 02:28N 37°44' W 122°20'0 0.1
2017-Dec-10 01:58N 37°44' W 122°20'0 0.0
2017-Dec-10 01:28N 37°44' W 122°20'0 0.2
2017-Dec-10 00:58N 37°44' W 122°20'0 0.2
2017-Dec-10 00:28N 37°44' W 122°20'0 0.1
2017-Dec-09 23:58N 37°44' W 122°20'0 0.0
2017-Dec-09 23:28N 37°44' W 122°20'0 0.0
2017-Dec-09 22:58N 37°44' W 122°20'0 0.1
2017-Dec-09 22:28N 37°44' W 122°20'0 0.1
2017-Dec-09 21:58N 37°44' W 122°20'0 0.0
2017-Dec-09 21:28N 37°44' W 122°20'0 0.0
2017-Dec-09 20:58N 37°44' W 122°20'0 0.1
2017-Dec-09 20:28N 37°44' W 122°20'0 0.2
2017-Dec-09 19:58N 37°44' W 122°20'0 0.1
2017-Dec-09 19:25N 37°44' W 122°20'0 0.0
2017-Dec-09 18:58N 37°44' W 122°20'0 0.0
2017-Dec-09 18:25N 37°44' W 122°20'0 0.0
2017-Dec-09 17:58N 37°44' W 122°20'0 0.0
2017-Dec-09 17:25N 37°44' W 122°20'0 0.1
2017-Dec-09 16:58N 37°44' W 122°20'0 0.0
2017-Dec-09 16:28N 37°44' W 122°20'0 0.0
2017-Dec-09 15:58N 37°44' W 122°20'0 0.0
2017-Dec-09 15:28N 37°44' W 122°20'0 0.1
2017-Dec-09 14:58N 37°44' W 122°20'0 0.1
2017-Dec-09 14:28N 37°44' W 122°20'0 0.2
2017-Dec-09 13:58N 37°44' W 122°20'0 0.1
2017-Dec-09 13:28N 37°44' W 122°20'0 0.0
2017-Dec-09 12:58N 37°44' W 122°20'0 0.1
2017-Dec-09 12:28N 37°44' W 122°20'0 0.0
2017-Dec-09 11:58N 37°44' W 122°20'0 0.1
2017-Dec-09 11:28N 37°44' W 122°20'0 0.1
2017-Dec-09 10:59N 37°44' W 122°20'0 0.0
2017-Dec-09 10:29N 37°44' W 122°20'0 0.0
2017-Dec-09 09:58N 37°44' W 122°20'0 0.0
2017-Dec-09 09:28N 37°44' W 122°20'0 0.0
2017-Dec-09 08:58N 37°44' W 122°20'0 0.0
2017-Dec-09 08:28N 37°44' W 122°20'0 0.1
2017-Dec-09 07:58N 37°44' W 122°20'0 0.0
2017-Dec-09 07:28N 37°44' W 122°20'0 0.2
2017-Dec-09 06:58N 37°44' W 122°20'0 0.2
2017-Dec-09 06:28N 37°44' W 122°20'0 0.0
2017-Dec-09 05:58N 37°44' W 122°20'0 0.0
2017-Dec-09 05:28N 37°44' W 122°20'0 0.0
2017-Dec-09 04:58N 37°44' W 122°20'0 0.0
2017-Dec-09 04:28N 37°44' W 122°20'0 0.0
2017-Dec-09 03:58N 37°44' W 122°20'0 0.1
2017-Dec-09 03:28N 37°44' W 122°20'0 0.0
2017-Dec-09 02:58N 37°44' W 122°20'0 0.0
2017-Dec-09 02:28N 37°44' W 122°20'0 0.0
2017-Dec-09 01:58N 37°44' W 122°20'0 0.1
2017-Dec-09 01:28N 37°44' W 122°20'0 0.0
2017-Dec-09 00:58N 37°44' W 122°20'0 0.1
2017-Dec-09 00:28N 37°44' W 122°20'0 0.2
2017-Dec-08 23:58N 37°44' W 122°20'0 0.2
2017-Dec-08 23:28N 37°44' W 122°20'0 0.0
2017-Dec-08 22:58N 37°44' W 122°20'0 0.0
2017-Dec-08 22:28N 37°44' W 122°20'0 0.0
2017-Dec-08 21:58N 37°44' W 122°20'0 0.0
2017-Dec-08 21:28N 37°44' W 122°20'0 0.0
2017-Dec-08 20:58N 37°44' W 122°20'0 0.0
2017-Dec-08 20:28N 37°44' W 122°20'0 0.0
2017-Dec-08 19:58N 37°44' W 122°20'0 0.0
2017-Dec-08 19:28N 37°44' W 122°20'0 0.0
2017-Dec-08 18:58N 37°44' W 122°20'0 0.2
2017-Dec-08 18:28N 37°44' W 122°20'0 0.1
2017-Dec-08 17:58N 37°44' W 122°20'0 0.1
2017-Dec-08 17:28N 37°44' W 122°20'0 0.0
2017-Dec-08 16:58N 37°44' W 122°20'0 0.0
2017-Dec-08 16:28N 37°44' W 122°20'0 0.0
2017-Dec-08 15:58N 37°44' W 122°20'0 0.0
2017-Dec-08 15:28N 37°44' W 122°20'0 0.0
2017-Dec-08 14:58N 37°44' W 122°20'0 0.1
2017-Dec-08 14:28N 37°44' W 122°20'0 0.0
2017-Dec-08 13:58N 37°44' W 122°20'0 0.1
2017-Dec-08 13:28N 37°44' W 122°20'0 0.2
2017-Dec-08 12:58N 37°44' W 122°20'0 0.0
2017-Dec-08 12:28N 37°44' W 122°20'0 0.0
2017-Dec-08 11:58N 37°44' W 122°20'0 0.1
2017-Dec-08 11:28N 37°44' W 122°20'0 0.0
2017-Dec-08 10:58N 37°44' W 122°20'0 0.0
2017-Dec-08 10:28N 37°44' W 122°20'0 0.0
2017-Dec-08 09:58N 37°44' W 122°20'0 0.0
2017-Dec-08 09:28N 37°44' W 122°20'0 0.0
2017-Dec-08 08:58N 37°44' W 122°20'0 0.0
2017-Dec-08 08:28N 37°44' W 122°20'0 0.0
2017-Dec-08 07:58N 37°44' W 122°20'0 0.0
2017-Dec-08 07:28N 37°44' W 122°20'0 0.1
2017-Dec-08 06:58N 37°44' W 122°20'0 0.1
2017-Dec-08 06:28N 37°44' W 122°20'0 0.3
2017-Dec-08 05:58N 37°44' W 122°20'0 0.1
2017-Dec-08 05:28N 37°44' W 122°20'0 0.0
2017-Dec-08 04:58N 37°44' W 122°20'0 0.0
2017-Dec-08 04:28N 37°44' W 122°20'0 0.0
2017-Dec-08 03:58N 37°44' W 122°20'0 0.0
2017-Dec-08 03:28N 37°44' W 122°20'0 0.0
2017-Dec-08 02:58N 37°44' W 122°20'0 0.0
2017-Dec-08 02:28N 37°44' W 122°20'0 0.2
2017-Dec-08 02:01N 37°44' W 122°20'4 8.3
2017-Dec-08 01:30N 37°48' W 122°22'612.9
2017-Dec-08 01:01N 37°53' W 122°26'714.1
2017-Dec-08 00:30N 38°00' W 122°24'713.4
2017-Dec-08 00:00N 38°04' W 122°17'611.4
2017-Dec-07 23:30N 38°02' W 122°10'510.3
2017-Dec-07 22:59N 38°04' W 122°03'612.5
2017-Dec-07 22:30N 38°03' W 121°56'4 7.4
2017-Dec-07 21:59N 38°02' W 121°51'14 8.9
2017-Dec-07 20:27N 38°05' W 121°35'  

Dump ship's entire track history